createdAt,value
2022-08-27T00:00:47.192Z,15.60
2022-08-27T00:03:14.917Z,15.05
2022-08-27T00:05:42.119Z,22.67
2022-08-27T00:08:12.403Z,19.63
2022-08-27T00:10:40.697Z,16.92
2022-08-27T00:13:07.631Z,14.98
2022-08-27T00:15:34.492Z,20.33
2022-08-27T00:18:01.322Z,21.20
2022-08-27T00:20:28.402Z,20.85
2022-08-27T00:22:55.601Z,18.90
2022-08-27T00:25:22.722Z,18.98
2022-08-27T00:27:49.571Z,17.67
2022-08-27T00:30:19.499Z,22.48
2022-08-27T00:32:47.462Z,20.42
2022-08-27T00:35:16.152Z,20.52
2022-08-27T00:37:44.420Z,18.45
2022-08-27T00:40:14.998Z,19.05
2022-08-27T00:42:42.595Z,21.17
2022-08-27T00:45:09.769Z,20.15
2022-08-27T00:47:42.816Z,21.00
2022-08-27T00:50:15.889Z,22.33
2022-08-27T00:52:52.459Z,20.00
2022-08-27T00:55:23.924Z,19.23
2022-08-27T00:58:24.007Z,21.15
2022-08-27T01:00:51.010Z,21.52
2022-08-27T01:03:18.053Z,26.17
2022-08-27T01:05:47.676Z,23.88
2022-08-27T01:08:19.544Z,19.08
2022-08-27T01:10:46.953Z,23.52
2022-08-27T01:13:18.582Z,24.45
2022-08-27T01:15:46.361Z,20.35
2022-08-27T01:18:14.895Z,20.80
2022-08-27T01:20:59.699Z,22.02
2022-08-27T01:23:58.750Z,18.15
2022-08-27T01:26:25.849Z,18.80
2022-08-27T01:28:53.244Z,17.95
2022-08-27T01:31:20.098Z,18.63
2022-08-27T01:34:04.527Z,19.38
2022-08-27T01:36:31.935Z,19.40
2022-08-27T01:38:58.892Z,17.88
2022-08-27T01:41:26.229Z,20.85
2022-08-27T01:43:53.623Z,18.13
2022-08-27T01:46:25.661Z,18.83
2022-08-27T01:48:53.051Z,20.35
2022-08-27T01:51:20.657Z,22.02
2022-08-27T01:53:47.610Z,27.00
2022-08-27T01:56:15.339Z,24.88
2022-08-27T01:58:43.664Z,22.80
2022-08-27T02:01:14.210Z,23.17
2022-08-27T02:03:41.527Z,25.02
2022-08-27T02:06:10.575Z,23.95
2022-08-27T02:08:37.864Z,25.90
2022-08-27T02:11:05.305Z,24.98
2022-08-27T02:13:32.043Z,25.58
2022-08-27T02:15:58.856Z,26.25
2022-08-27T02:18:26.103Z,21.27
2022-08-27T02:20:52.868Z,24.73
2022-08-27T02:23:19.692Z,23.98
2022-08-27T02:25:49.428Z,25.33
2022-08-27T02:28:16.336Z,27.58
2022-08-27T02:30:44.012Z,25.58
2022-08-27T02:33:10.793Z,24.50
2022-08-27T02:35:43.809Z,26.48
2022-08-27T02:38:13.076Z,24.02
2022-08-27T02:40:40.338Z,23.30
2022-08-27T02:43:07.586Z,23.90
2022-08-27T02:45:35.599Z,18.33
2022-08-27T02:48:03.373Z,20.13
2022-08-27T02:50:30.380Z,20.50
2022-08-27T02:52:57.809Z,19.27
2022-08-27T02:55:24.763Z,19.83
2022-08-27T02:57:51.557Z,18.38
2022-08-27T03:00:21.545Z,20.52
2022-08-27T03:02:48.521Z,20.70
2022-08-27T03:05:16.181Z,18.73
2022-08-27T03:07:43.435Z,23.15
2022-08-27T03:10:13.467Z,21.05
2022-08-27T03:12:41.390Z,20.02
2022-08-27T03:15:11.382Z,27.13
2022-08-27T03:17:56.810Z,23.80
2022-08-27T03:20:24.259Z,22.55
2022-08-27T03:22:51.262Z,20.02
2022-08-27T03:25:18.228Z,21.67
2022-08-27T03:27:45.294Z,21.58
2022-08-27T03:30:16.091Z,21.70
2022-08-27T03:32:43.778Z,20.45
2022-08-27T03:35:11.637Z,19.00
2022-08-27T03:37:38.637Z,20.92
2022-08-27T03:40:07.102Z,21.20
2022-08-27T03:42:34.788Z,22.65
2022-08-27T03:45:01.738Z,22.15
2022-08-27T03:47:28.547Z,28.98
2022-08-27T03:49:55.302Z,32.92
2022-08-27T03:52:22.367Z,30.23
2022-08-27T03:54:49.113Z,31.70
2022-08-27T03:57:15.884Z,36.10
2022-08-27T03:59:42.661Z,36.47
2022-08-27T04:02:09.532Z,39.78
2022-08-27T04:04:36.375Z,45.13
2022-08-27T04:07:03.804Z,47.38
2022-08-27T04:09:30.531Z,46.70
2022-08-27T04:11:57.325Z,47.83
2022-08-27T04:14:26.755Z,48.42
2022-08-27T04:16:57.724Z,49.38
2022-08-27T04:19:27.948Z,52.10
2022-08-27T04:22:00.153Z,51.97
2022-08-27T04:24:27.186Z,54.42
2022-08-27T04:26:53.965Z,52.53
2022-08-27T04:29:20.767Z,56.85
2022-08-27T04:31:47.982Z,56.25
2022-08-27T04:34:16.508Z,53.08
2022-08-27T04:36:43.307Z,56.70
2022-08-27T04:39:10.047Z,51.85
2022-08-27T04:41:36.951Z,54.83
2022-08-27T04:44:07.360Z,51.45
2022-08-27T04:46:40.718Z,49.78
2022-08-27T04:49:15.289Z,50.60
2022-08-27T04:51:43.071Z,55.80
2022-08-27T04:54:10.862Z,55.85
2022-08-27T04:56:38.658Z,48.53
2022-08-27T04:59:08.196Z,48.65
2022-08-27T05:01:35.517Z,46.90
2022-08-27T05:04:02.976Z,45.22
2022-08-27T05:06:29.801Z,50.70
2022-08-27T05:08:57.330Z,48.30
2022-08-27T05:11:27.088Z,45.92
2022-08-27T05:13:53.841Z,45.58
2022-08-27T05:16:22.920Z,53.10
2022-08-27T05:18:51.846Z,45.60
2022-08-27T05:21:24.799Z,48.72
2022-08-27T05:23:52.800Z,47.63
2022-08-27T05:26:20.030Z,50.40
2022-08-27T05:28:47.061Z,45.90
2022-08-27T05:31:15.316Z,49.50
2022-08-27T05:33:42.977Z,51.03
2022-08-27T05:36:20.719Z,49.30
2022-08-27T05:38:49.285Z,49.00
2022-08-27T05:41:19.308Z,46.78
2022-08-27T05:43:50.112Z,50.88
2022-08-27T05:46:20.334Z,48.65
2022-08-27T05:48:49.136Z,46.58
2022-08-27T05:51:25.692Z,48.35
2022-08-27T05:54:08.798Z,47.53
2022-08-27T05:56:38.909Z,56.78
2022-08-27T05:59:35.391Z,56.05
2022-08-27T06:02:04.086Z,51.05
2022-08-27T06:04:30.903Z,49.05
2022-08-27T06:06:57.692Z,52.85
2022-08-27T06:09:28.795Z,48.47
2022-08-27T06:11:57.946Z,50.72
2022-08-27T06:14:24.791Z,54.38
2022-08-27T06:16:51.968Z,48.15
2022-08-27T06:19:18.877Z,51.00
2022-08-27T06:21:45.759Z,46.08
2022-08-27T06:24:13.473Z,50.85
2022-08-27T06:26:44.727Z,47.53
2022-08-27T06:29:13.893Z,41.53
2022-08-27T06:31:41.574Z,44.00
2022-08-27T06:34:09.909Z,47.05
2022-08-27T06:36:41.855Z,43.30
2022-08-27T06:39:13.236Z,47.40
2022-08-27T06:41:41.726Z,39.30
2022-08-27T06:44:12.047Z,38.15
2022-08-27T06:46:39.853Z,37.42
2022-08-27T06:49:06.975Z,37.70
2022-08-27T06:51:37.662Z,38.40
2022-08-27T06:54:07.216Z,42.13
2022-08-27T06:56:34.458Z,42.25
2022-08-27T06:59:03.752Z,36.33
2022-08-27T07:01:36.605Z,37.83
2022-08-27T07:04:07.082Z,35.05
2022-08-27T07:06:35.978Z,35.67
2022-08-27T07:09:03.873Z,33.42
2022-08-27T07:11:34.143Z,36.33
2022-08-27T07:14:01.416Z,35.38
2022-08-27T07:16:29.291Z,33.33
2022-08-27T07:19:01.909Z,36.95
2022-08-27T07:23:59.732Z,34.53
2022-08-27T07:26:26.826Z,29.60
2022-08-27T07:28:53.590Z,28.67
2022-08-27T07:31:22.777Z,29.25
2022-08-27T07:33:52.652Z,31.83
2022-08-27T07:36:21.758Z,34.88
2022-08-27T07:38:56.953Z,29.92
2022-08-27T07:41:32.294Z,32.65
2022-08-27T07:44:26.158Z,29.98
2022-08-27T07:46:55.934Z,30.77
2022-08-27T07:49:23.771Z,30.05
2022-08-27T07:51:51.129Z,31.73
2022-08-27T07:54:21.077Z,27.08
2022-08-27T07:56:55.161Z,32.30
2022-08-27T07:59:26.266Z,32.75
2022-08-27T08:01:54.371Z,29.77
2022-08-27T08:04:22.643Z,28.40
2022-08-27T08:06:50.985Z,30.67
2022-08-27T08:09:17.846Z,31.48
2022-08-27T08:11:44.857Z,33.97
2022-08-27T08:14:11.624Z,34.53
2022-08-27T08:16:38.464Z,35.28
2022-08-27T08:19:05.310Z,34.40
2022-08-27T08:21:32.151Z,32.08
2022-08-27T08:24:00.026Z,32.90
2022-08-27T08:26:26.840Z,33.05
2022-08-27T08:28:53.594Z,30.30
2022-08-27T08:31:21.091Z,31.08
2022-08-27T08:33:48.574Z,35.67
2022-08-27T08:36:17.274Z,35.17
2022-08-27T08:38:47.289Z,33.15
2022-08-27T08:41:44.456Z,29.10
2022-08-27T08:44:36.563Z,38.20
2022-08-27T08:47:10.405Z,33.13
2022-08-27T08:50:15.785Z,33.22
2022-08-27T08:52:58.459Z,34.75
2022-08-27T08:55:45.678Z,38.05
2022-08-27T08:58:45.421Z,31.60
2022-08-27T09:01:17.449Z,39.45
2022-08-27T09:03:59.228Z,33.65
2022-08-27T09:06:33.174Z,34.80
2022-08-27T09:09:12.233Z,36.58
2022-08-27T09:11:56.983Z,35.17
2022-08-27T09:15:05.034Z,37.20
2022-08-27T09:17:32.516Z,40.65
2022-08-27T09:19:59.376Z,37.28
2022-08-27T09:22:47.071Z,38.72
2022-08-27T09:25:28.309Z,34.58
2022-08-27T09:27:57.535Z,31.83
2022-08-27T09:30:30.763Z,36.90
2022-08-27T09:33:01.346Z,34.97
2022-08-27T09:35:34.400Z,30.60
2022-08-27T09:38:02.382Z,38.25
2022-08-27T09:41:10.732Z,38.15
2022-08-27T10:12:43.238Z,27.85
2022-08-27T10:36:18.321Z,26.88
2022-08-27T10:39:10.692Z,20.95
2022-08-27T11:20:37.117Z,15.10
2022-08-27T11:32:21.288Z,13.63
2022-08-27T11:42:05.791Z,17.00
2022-08-27T11:49:40.771Z,19.30
2022-08-27T11:53:26.601Z,15.18
2022-08-27T12:00:52.478Z,19.95
2022-08-27T12:09:06.308Z,16.00
2022-08-27T12:11:48.912Z,15.85
2022-08-27T12:14:35.377Z,16.10
2022-08-27T12:17:24.125Z,18.27
2022-08-27T12:20:12.465Z,18.42
2022-08-27T12:23:26.179Z,14.70
2022-08-27T12:26:18.589Z,19.25
2022-08-27T12:28:52.134Z,16.02
2022-08-27T12:31:24.328Z,15.90
2022-08-27T12:33:57.797Z,17.02
2022-08-27T12:36:28.516Z,14.95
2022-08-27T12:39:01.005Z,15.50
2022-08-27T12:41:46.000Z,14.88
2022-08-27T12:45:02.785Z,19.40
2022-08-27T12:51:45.928Z,23.80
2022-08-27T13:03:12.138Z,17.58
2022-08-27T13:10:40.972Z,21.20
2022-08-27T13:17:17.849Z,20.55
2022-08-27T13:32:02.849Z,17.30
2022-08-27T13:34:42.065Z,17.35
2022-08-27T13:41:31.793Z,14.90
2022-08-27T13:47:31.655Z,15.02
2022-08-27T13:57:52.616Z,17.55
2022-08-27T14:04:58.874Z,16.35
2022-08-27T14:08:18.068Z,18.55
2022-08-27T14:14:17.942Z,15.40
2022-08-27T14:16:47.452Z,16.17
2022-08-27T14:23:09.098Z,14.07
2022-08-27T14:26:42.562Z,16.55
2022-08-27T14:32:03.687Z,20.00
2022-08-27T14:51:12.942Z,19.63
2022-08-27T14:53:57.918Z,17.80
2022-08-27T14:56:34.817Z,15.70
2022-08-27T15:01:57.923Z,15.93
2022-08-27T15:04:37.786Z,19.70
2022-08-27T15:07:05.559Z,15.73
2022-08-27T15:18:23.828Z,14.85
2022-08-27T15:25:48.405Z,18.88
2022-08-27T15:32:28.838Z,18.85
2022-08-27T15:35:30.114Z,19.50
2022-08-27T15:38:35.666Z,20.73
2022-08-27T15:45:32.709Z,19.90
2022-08-27T15:49:18.556Z,21.58
2022-08-27T16:00:01.650Z,22.15
2022-08-27T16:07:10.284Z,20.27
2022-08-27T16:24:55.653Z,18.52
2022-08-27T16:32:36.625Z,21.73
2022-08-27T16:42:24.718Z,18.77
2022-08-27T16:58:29.595Z,20.98
2022-08-27T17:01:45.560Z,26.38
2022-08-27T17:15:30.207Z,30.90
2022-08-27T17:21:55.086Z,28.15
2022-08-27T17:30:16.089Z,28.17
2022-08-27T17:37:20.467Z,27.98
2022-08-27T17:40:05.925Z,28.77
2022-08-27T17:42:32.909Z,29.27
2022-08-27T17:45:00.208Z,27.90
2022-08-27T17:47:27.774Z,25.60
2022-08-27T17:49:54.618Z,27.25
2022-08-27T17:52:22.474Z,27.52
2022-08-27T17:54:51.913Z,27.17
2022-08-27T17:57:22.690Z,29.52
2022-08-27T17:59:50.584Z,24.80
2022-08-27T18:02:37.670Z,27.33
2022-08-27T18:05:07.084Z,23.60
2022-08-27T18:07:39.148Z,25.88
2022-08-27T18:10:07.650Z,29.08
2022-08-27T18:12:34.551Z,26.13
2022-08-27T18:15:06.899Z,28.90
2022-08-27T18:17:34.589Z,25.80
2022-08-27T18:20:03.805Z,26.08
2022-08-27T18:22:35.116Z,30.75
2022-08-27T18:25:06.191Z,27.15
2022-08-27T18:27:35.534Z,27.05
2022-08-27T18:30:04.075Z,25.38
2022-08-27T18:32:31.285Z,29.17
2022-08-27T18:35:01.293Z,25.25
2022-08-27T18:37:28.049Z,27.25
2022-08-27T18:39:54.931Z,27.38
2022-08-27T18:42:21.746Z,24.77
2022-08-27T18:44:48.487Z,24.65
2022-08-27T18:47:15.284Z,25.48
2022-08-27T18:49:42.159Z,26.50
2022-08-27T18:52:12.092Z,24.23
2022-08-27T18:54:41.354Z,21.60
2022-08-27T18:57:08.303Z,31.05
2022-08-27T18:59:35.670Z,24.35
2022-08-27T19:02:04.436Z,26.25
2022-08-27T19:04:32.611Z,24.42
2022-08-27T19:06:59.479Z,28.50
2022-08-27T19:09:26.353Z,26.23
2022-08-27T19:11:53.134Z,24.92
2022-08-27T19:14:20.093Z,23.48
2022-08-27T19:16:50.638Z,22.08
2022-08-27T19:19:18.264Z,24.50
2022-08-27T19:21:50.689Z,25.95
2022-08-27T19:26:46.875Z,21.45
2022-08-27T19:29:13.802Z,24.95
2022-08-27T19:31:40.734Z,20.90
2022-08-27T19:34:08.570Z,24.38
2022-08-27T19:36:39.578Z,23.02
2022-08-27T19:39:08.317Z,21.20
2022-08-27T19:41:35.215Z,25.33
2022-08-27T19:44:02.313Z,27.13
2022-08-27T19:46:29.239Z,19.95
2022-08-27T19:48:57.872Z,22.25
2022-08-27T19:51:25.049Z,30.08
2022-08-27T19:53:52.001Z,23.38
2022-08-27T19:56:18.936Z,26.85
2022-08-27T19:58:45.834Z,24.05
2022-08-27T20:01:12.948Z,24.17
2022-08-27T20:03:39.757Z,25.20
2022-08-27T20:06:06.573Z,28.95
2022-08-27T20:08:33.630Z,28.10
2022-08-27T20:11:01.384Z,28.35
2022-08-27T20:13:32.871Z,26.98
2022-08-27T20:16:00.499Z,24.50
2022-08-27T20:18:27.460Z,27.80
2022-08-27T20:20:54.489Z,29.92
2022-08-27T20:23:21.341Z,26.38
2022-08-27T20:25:48.214Z,26.30
2022-08-27T20:28:37.666Z,25.73
2022-08-27T20:31:02.230Z,23.80
2022-08-27T20:33:29.108Z,21.98
2022-08-27T20:35:56.669Z,20.42
2022-08-27T20:38:23.517Z,21.63
2022-08-27T20:40:50.740Z,22.67
2022-08-27T20:43:18.755Z,22.10
2022-08-27T20:45:45.841Z,19.38
2022-08-27T20:48:13.284Z,24.23
2022-08-27T20:50:40.271Z,22.30
2022-08-27T20:53:07.102Z,20.92
2022-08-27T20:55:33.895Z,23.30
2022-08-27T20:58:19.243Z,25.98
2022-08-27T21:00:46.243Z,22.27
2022-08-27T21:03:14.701Z,27.35
2022-08-27T21:05:43.596Z,23.65
2022-08-27T21:08:10.530Z,22.30
2022-08-27T21:10:47.576Z,25.45
2022-08-27T21:13:15.172Z,23.40
2022-08-27T21:15:41.997Z,21.60
2022-08-27T21:18:08.955Z,23.90
2022-08-27T21:20:35.792Z,20.92
2022-08-27T21:23:02.810Z,23.10
2022-08-27T21:25:29.796Z,25.23
2022-08-27T21:27:57.781Z,21.10
2022-08-27T21:30:26.191Z,22.48
2022-08-27T21:32:55.856Z,24.30
2022-08-27T21:35:27.299Z,22.50
2022-08-27T21:37:56.665Z,20.85
2022-08-27T21:40:25.180Z,23.83
2022-08-27T21:42:53.567Z,24.15
2022-08-27T21:45:20.709Z,20.13
2022-08-27T21:47:47.767Z,25.15
2022-08-27T21:50:15.168Z,23.02
2022-08-27T21:52:41.952Z,19.42
2022-08-27T21:55:09.380Z,23.60
2022-08-27T21:57:36.394Z,19.80
2022-08-27T22:00:15.950Z,21.85
2022-08-27T22:02:42.687Z,22.15
2022-08-27T22:05:09.777Z,23.05
2022-08-27T22:07:36.613Z,19.20
2022-08-27T22:10:04.886Z,24.20
2022-08-27T22:12:31.686Z,20.00
2022-08-27T22:14:58.463Z,20.38
2022-08-27T22:17:25.268Z,18.38
2022-08-27T22:19:52.058Z,19.35
2022-08-27T22:22:18.995Z,26.88
2022-08-27T22:24:46.081Z,20.55
2022-08-27T22:27:12.847Z,20.50
2022-08-27T22:29:39.711Z,20.00
2022-08-27T22:32:09.370Z,18.85
2022-08-27T22:34:36.490Z,20.98
2022-08-27T22:37:04.506Z,23.58
2022-08-27T22:39:31.426Z,18.88
2022-08-27T22:41:58.609Z,19.25
2022-08-27T22:44:29.221Z,21.38
2022-08-27T22:46:56.640Z,18.85
2022-08-27T22:49:23.438Z,21.58
2022-08-27T22:51:50.300Z,19.70
2022-08-27T22:54:18.292Z,19.17
2022-08-27T22:56:45.088Z,24.63
2022-08-27T22:59:12.017Z,20.90
2022-08-27T23:01:38.991Z,19.45
2022-08-27T23:04:06.566Z,26.38
2022-08-27T23:06:34.558Z,19.40
2022-08-27T23:09:01.835Z,22.45
2022-08-27T23:11:31.588Z,19.13
2022-08-27T23:13:59.315Z,18.00
2022-08-27T23:16:27.108Z,21.88
2022-08-27T23:18:54.608Z,19.75
2022-08-27T23:21:21.406Z,21.33
2022-08-27T23:23:48.192Z,20.25
2022-08-27T23:26:33.652Z,19.58
2022-08-27T23:29:00.529Z,20.58
2022-08-27T23:31:27.348Z,20.13
2022-08-27T23:33:55.915Z,20.17
2022-08-27T23:36:23.252Z,18.20
2022-08-27T23:38:50.086Z,21.63
2022-08-27T23:41:16.940Z,24.23
2022-08-27T23:43:45.630Z,24.45
2022-08-27T23:46:13.200Z,23.90
2022-08-27T23:48:40.600Z,24.95
2022-08-27T23:51:08.537Z,25.73
2022-08-27T23:53:37.180Z,27.27
2022-08-27T23:56:04.996Z,28.73
2022-08-27T23:58:32.694Z,26.05
